sensor_id;sensor_type;location;lat;lon;timestamp;temperature;humidity
6210;DHT22;3138;52.550;13.148;2022-12-10T00:01:06;-1.80;99.90
6210;DHT22;3138;52.550;13.148;2022-12-10T00:03:33;-1.80;99.90
6210;DHT22;3138;52.550;13.148;2022-12-10T00:06:01;-1.80;99.90
6210;DHT22;3138;52.550;13.148;2022-12-10T00:08:28;-1.80;99.90
6210;DHT22;3138;52.550;13.148;2022-12-10T00:10:56;-1.80;99.90
6210;DHT22;3138;52.550;13.148;2022-12-10T00:13:23;-1.80;99.90
6210;DHT22;3138;52.550;13.148;2022-12-10T00:15:50;-1.80;99.90
6210;DHT22;3138;52.550;13.148;2022-12-10T00:18:17;-1.80;99.90
6210;DHT22;3138;52.550;13.148;2022-12-10T00:20:44;-1.70;99.90
6210;DHT22;3138;52.550;13.148;2022-12-10T00:23:11;-1.70;99.90
6210;DHT22;3138;52.550;13.148;2022-12-10T00:25:38;-1.70;99.90
6210;DHT22;3138;52.550;13.148;2022-12-10T00:28:06;-1.70;99.90
6210;DHT22;3138;52.550;13.148;2022-12-10T00:30:33;-1.70;99.90
6210;DHT22;3138;52.550;13.148;2022-12-10T00:33:00;-1.70;99.90
6210;DHT22;3138;52.550;13.148;2022-12-10T00:35:27;-1.70;99.90
6210;DHT22;3138;52.550;13.148;2022-12-10T00:37:54;-1.70;99.90
6210;DHT22;3138;52.550;13.148;2022-12-10T00:40:21;-1.70;99.90
6210;DHT22;3138;52.550;13.148;2022-12-10T00:42:48;-1.70;99.90
6210;DHT22;3138;52.550;13.148;2022-12-10T00:45:17;-1.70;99.90
6210;DHT22;3138;52.550;13.148;2022-12-10T00:47:44;-1.70;99.90
6210;DHT22;3138;52.550;13.148;2022-12-10T00:50:11;-1.70;99.90
6210;DHT22;3138;52.550;13.148;2022-12-10T00:52:38;-1.70;99.90
6210;DHT22;3138;52.550;13.148;2022-12-10T00:55:05;-1.70;99.90
6210;DHT22;3138;52.550;13.148;2022-12-10T00:57:32;-1.70;99.90
6210;DHT22;3138;52.550;13.148;2022-12-10T00:59:59;-1.70;99.90
6210;DHT22;3138;52.550;13.148;2022-12-10T01:02:27;-1.70;99.90
6210;DHT22;3138;52.550;13.148;2022-12-10T01:04:54;-1.80;99.90
6210;DHT22;3138;52.550;13.148;2022-12-10T01:07:20;-1.80;99.90
6210;DHT22;3138;52.550;13.148;2022-12-10T01:09:47;-1.80;99.90
6210;DHT22;3138;52.550;13.148;2022-12-10T01:12:14;-1.70;99.90
6210;DHT22;3138;52.550;13.148;2022-12-10T01:14:41;-1.80;99.90
6210;DHT22;3138;52.550;13.148;2022-12-10T01:17:08;-1.80;99.90
6210;DHT22;3138;52.550;13.148;2022-12-10T01:22:03;-1.80;99.90
6210;DHT22;3138;52.550;13.148;2022-12-10T01:24:31;-1.80;99.90
6210;DHT22;3138;52.550;13.148;2022-12-10T01:26:58;-1.80;99.90
6210;DHT22;3138;52.550;13.148;2022-12-10T01:29:25;-1.90;99.90
6210;DHT22;3138;52.550;13.148;2022-12-10T01:31:54;-1.90;99.90
6210;DHT22;3138;52.550;13.148;2022-12-10T01:34:22;-1.90;99.90
6210;DHT22;3138;52.550;13.148;2022-12-10T01:36:52;-2.00;99.90
6210;DHT22;3138;52.550;13.148;2022-12-10T01:39:20;-2.00;99.90
6210;DHT22;3138;52.550;13.148;2022-12-10T01:41:50;-2.00;99.90
6210;DHT22;3138;52.550;13.148;2022-12-10T01:47:21;-2.00;99.90
6210;DHT22;3138;52.550;13.148;2022-12-10T01:49:48;-2.00;99.90
6210;DHT22;3138;52.550;13.148;2022-12-10T01:52:18;-2.00;99.90
6210;DHT22;3138;52.550;13.148;2022-12-10T01:54:46;-2.10;99.90
6210;DHT22;3138;52.550;13.148;2022-12-10T01:57:15;-2.10;99.90
6210;DHT22;3138;52.550;13.148;2022-12-10T01:59:46;-2.10;99.90
6210;DHT22;3138;52.550;13.148;2022-12-10T02:02:18;-2.20;99.90
6210;DHT22;3138;52.550;13.148;2022-12-10T02:04:54;-2.20;99.90
6210;DHT22;3138;52.550;13.148;2022-12-10T02:07:27;-2.20;99.90
6210;DHT22;3138;52.550;13.148;2022-12-10T02:10:00;-2.20;99.90
6210;DHT22;3138;52.550;13.148;2022-12-10T02:12:43;-2.20;99.90
6210;DHT22;3138;52.550;13.148;2022-12-10T02:15:15;-2.20;99.90
6210;DHT22;3138;52.550;13.148;2022-12-10T02:17:45;-2.40;99.90
6210;DHT22;3138;52.550;13.148;2022-12-10T02:20:17;-2.40;99.90
6210;DHT22;3138;52.550;13.148;2022-12-10T02:22:49;-2.40;99.90
6210;DHT22;3138;52.550;13.148;2022-12-10T02:25:20;-2.50;99.90
6210;DHT22;3138;52.550;13.148;2022-12-10T02:27:54;-2.50;99.90
6210;DHT22;3138;52.550;13.148;2022-12-10T02:30:25;-2.60;99.90
6210;DHT22;3138;52.550;13.148;2022-12-10T02:32:53;-2.60;99.90
6210;DHT22;3138;52.550;13.148;2022-12-10T02:35:24;-2.60;99.90
6210;DHT22;3138;52.550;13.148;2022-12-10T02:37:53;-2.60;99.90
6210;DHT22;3138;52.550;13.148;2022-12-10T02:40:25;-2.60;99.90
6210;DHT22;3138;52.550;13.148;2022-12-10T02:42:54;-2.70;99.90
6210;DHT22;3138;52.550;13.148;2022-12-10T02:45:26;-2.70;99.90
6210;DHT22;3138;52.550;13.148;2022-12-10T02:47:57;-2.70;99.90
6210;DHT22;3138;52.550;13.148;2022-12-10T02:50:24;-2.80;99.90
6210;DHT22;3138;52.550;13.148;2022-12-10T02:52:51;-2.70;99.90
6210;DHT22;3138;52.550;13.148;2022-12-10T02:55:19;-2.70;99.90
6210;DHT22;3138;52.550;13.148;2022-12-10T02:57:57;-2.70;99.90
6210;DHT22;3138;52.550;13.148;2022-12-10T03:00:28;-2.70;99.90
6210;DHT22;3138;52.550;13.148;2022-12-10T03:03:15;-2.60;99.90
6210;DHT22;3138;52.550;13.148;2022-12-10T03:05:47;-2.60;99.90
6210;DHT22;3138;52.550;13.148;2022-12-10T03:08:18;-2.60;99.90
6210;DHT22;3138;52.550;13.148;2022-12-10T03:10:52;-2.60;99.90
6210;DHT22;3138;52.550;13.148;2022-12-10T03:13:28;-2.50;99.90
6210;DHT22;3138;52.550;13.148;2022-12-10T03:15:58;-2.60;99.90
6210;DHT22;3138;52.550;13.148;2022-12-10T03:18:27;-2.50;99.90
6210;DHT22;3138;52.550;13.148;2022-12-10T03:20:58;-2.50;99.90
6210;DHT22;3138;52.550;13.148;2022-12-10T03:23:27;-2.60;99.90
6210;DHT22;3138;52.550;13.148;2022-12-10T03:25:54;-2.60;99.90
6210;DHT22;3138;52.550;13.148;2022-12-10T03:28:22;-2.60;99.90
6210;DHT22;3138;52.550;13.148;2022-12-10T03:30:50;-2.50;99.90
6210;DHT22;3138;52.550;13.148;2022-12-10T03:33:19;-2.50;99.90
6210;DHT22;3138;52.550;13.148;2022-12-10T03:35:47;-2.50;99.90
6210;DHT22;3138;52.550;13.148;2022-12-10T03:38:14;-2.60;99.90
6210;DHT22;3138;52.550;13.148;2022-12-10T03:40:41;-2.50;99.90
6210;DHT22;3138;52.550;13.148;2022-12-10T03:43:09;-2.50;99.90
6210;DHT22;3138;52.550;13.148;2022-12-10T03:45:39;-2.50;99.90
6210;DHT22;3138;52.550;13.148;2022-12-10T03:48:06;-2.50;99.90
6210;DHT22;3138;52.550;13.148;2022-12-10T03:50:34;-2.40;99.90
6210;DHT22;3138;52.550;13.148;2022-12-10T03:53:01;-2.40;99.90
6210;DHT22;3138;52.550;13.148;2022-12-10T03:55:28;-2.40;99.90
6210;DHT22;3138;52.550;13.148;2022-12-10T03:57:54;-2.40;99.90
6210;DHT22;3138;52.550;13.148;2022-12-10T04:00:21;-2.40;99.90
6210;DHT22;3138;52.550;13.148;2022-12-10T04:02:48;-2.30;99.90
6210;DHT22;3138;52.550;13.148;2022-12-10T04:05:15;-2.30;99.90
6210;DHT22;3138;52.550;13.148;2022-12-10T04:07:44;-2.30;99.90
6210;DHT22;3138;52.550;13.148;2022-12-10T04:10:10;-2.30;99.90
6210;DHT22;3138;52.550;13.148;2022-12-10T04:12:38;-2.30;99.90
6210;DHT22;3138;52.550;13.148;2022-12-10T04:15:06;-2.30;99.90
6210;DHT22;3138;52.550;13.148;2022-12-10T04:17:50;-2.20;99.90
6210;DHT22;3138;52.550;13.148;2022-12-10T04:20:18;-2.20;99.90
6210;DHT22;3138;52.550;13.148;2022-12-10T04:23:06;-2.20;99.90
6210;DHT22;3138;52.550;13.148;2022-12-10T04:25:51;-2.20;99.90
6210;DHT22;3138;52.550;13.148;2022-12-10T04:28:35;-2.10;99.90
6210;DHT22;3138;52.550;13.148;2022-12-10T04:31:02;-2.10;99.90
6210;DHT22;3138;52.550;13.148;2022-12-10T04:33:29;-2.10;99.90
6210;DHT22;3138;52.550;13.148;2022-12-10T04:35:56;-2.10;99.90
6210;DHT22;3138;52.550;13.148;2022-12-10T04:38:24;-2.10;99.90
6210;DHT22;3138;52.550;13.148;2022-12-10T04:40:51;-2.10;99.90
6210;DHT22;3138;52.550;13.148;2022-12-10T04:43:18;-2.00;99.90
6210;DHT22;3138;52.550;13.148;2022-12-10T04:45:44;-2.00;99.90
6210;DHT22;3138;52.550;13.148;2022-12-10T04:48:11;-2.00;99.90
6210;DHT22;3138;52.550;13.148;2022-12-10T04:50:38;-2.00;99.90
6210;DHT22;3138;52.550;13.148;2022-12-10T04:53:05;-1.90;99.90
6210;DHT22;3138;52.550;13.148;2022-12-10T04:55:33;-2.00;99.90
6210;DHT22;3138;52.550;13.148;2022-12-10T04:58:00;-2.00;99.90
6210;DHT22;3138;52.550;13.148;2022-12-10T05:00:27;-2.00;99.90
6210;DHT22;3138;52.550;13.148;2022-12-10T05:02:54;-2.00;99.90
6210;DHT22;3138;52.550;13.148;2022-12-10T05:05:21;-2.00;99.90
6210;DHT22;3138;52.550;13.148;2022-12-10T05:07:48;-2.00;99.90
6210;DHT22;3138;52.550;13.148;2022-12-10T05:10:14;-2.00;99.90
6210;DHT22;3138;52.550;13.148;2022-12-10T05:12:43;-1.90;99.90
6210;DHT22;3138;52.550;13.148;2022-12-10T05:15:10;-1.90;99.90
6210;DHT22;3138;52.550;13.148;2022-12-10T05:17:37;-1.90;99.90
6210;DHT22;3138;52.550;13.148;2022-12-10T05:20:04;-1.90;99.90
6210;DHT22;3138;52.550;13.148;2022-12-10T05:22:31;-1.90;99.90
6210;DHT22;3138;52.550;13.148;2022-12-10T05:25:15;-1.80;99.90
6210;DHT22;3138;52.550;13.148;2022-12-10T05:27:44;-1.80;99.90
6210;DHT22;3138;52.550;13.148;2022-12-10T05:30:11;-1.80;99.90
6210;DHT22;3138;52.550;13.148;2022-12-10T05:32:38;-1.90;99.90
6210;DHT22;3138;52.550;13.148;2022-12-10T05:35:05;-1.90;99.90
6210;DHT22;3138;52.550;13.148;2022-12-10T05:37:32;-1.90;99.90
6210;DHT22;3138;52.550;13.148;2022-12-10T05:39:59;-1.90;99.90
6210;DHT22;3138;52.550;13.148;2022-12-10T05:42:26;-1.80;99.90
6210;DHT22;3138;52.550;13.148;2022-12-10T05:44:55;-1.90;99.90
6210;DHT22;3138;52.550;13.148;2022-12-10T05:47:22;-1.80;99.90
6210;DHT22;3138;52.550;13.148;2022-12-10T05:49:49;-1.80;99.90
6210;DHT22;3138;52.550;13.148;2022-12-10T05:52:16;-1.80;99.90
6210;DHT22;3138;52.550;13.148;2022-12-10T05:54:42;-1.80;99.90
6210;DHT22;3138;52.550;13.148;2022-12-10T05:57:09;-1.80;99.90
6210;DHT22;3138;52.550;13.148;2022-12-10T05:59:36;-1.80;99.90
6210;DHT22;3138;52.550;13.148;2022-12-10T06:02:04;-1.80;99.90
6210;DHT22;3138;52.550;13.148;2022-12-10T06:04:31;-1.80;99.90
6210;DHT22;3138;52.550;13.148;2022-12-10T06:06:58;-1.80;99.90
6210;DHT22;3138;52.550;13.148;2022-12-10T06:09:25;-1.80;99.90
6210;DHT22;3138;52.550;13.148;2022-12-10T06:11:52;-1.80;99.90
6210;DHT22;3138;52.550;13.148;2022-12-10T06:14:19;-1.80;99.90
6210;DHT22;3138;52.550;13.148;2022-12-10T06:16:46;-1.80;99.90
6210;DHT22;3138;52.550;13.148;2022-12-10T06:19:14;-1.80;99.90
6210;DHT22;3138;52.550;13.148;2022-12-10T06:21:41;-1.80;99.90
6210;DHT22;3138;52.550;13.148;2022-12-10T06:24:07;-1.80;99.90
6210;DHT22;3138;52.550;13.148;2022-12-10T06:26:34;-1.80;99.90
6210;DHT22;3138;52.550;13.148;2022-12-10T06:29:01;-1.80;99.90
6210;DHT22;3138;52.550;13.148;2022-12-10T06:31:30;-1.80;99.90
6210;DHT22;3138;52.550;13.148;2022-12-10T06:33:57;-1.80;99.90
6210;DHT22;3138;52.550;13.148;2022-12-10T06:36:25;-1.90;99.90
6210;DHT22;3138;52.550;13.148;2022-12-10T06:38:52;-1.90;99.90
6210;DHT22;3138;52.550;13.148;2022-12-10T06:41:19;-1.90;99.90
6210;DHT22;3138;52.550;13.148;2022-12-10T06:43:47;-1.90;99.90
6210;DHT22;3138;52.550;13.148;2022-12-10T06:46:19;-1.90;99.90
6210;DHT22;3138;52.550;13.148;2022-12-10T06:48:46;-1.90;99.90
6210;DHT22;3138;52.550;13.148;2022-12-10T06:51:13;-1.90;99.90
6210;DHT22;3138;52.550;13.148;2022-12-10T06:53:42;-1.90;99.90
6210;DHT22;3138;52.550;13.148;2022-12-10T06:56:12;-1.90;99.90
6210;DHT22;3138;52.550;13.148;2022-12-10T06:58:39;-1.90;99.90
6210;DHT22;3138;52.550;13.148;2022-12-10T07:01:09;-1.90;99.90
6210;DHT22;3138;52.550;13.148;2022-12-10T07:03:37;-1.90;99.90
6210;DHT22;3138;52.550;13.148;2022-12-10T07:06:05;-1.80;99.90
6210;DHT22;3138;52.550;13.148;2022-12-10T07:08:33;-1.80;99.90
6210;DHT22;3138;52.550;13.148;2022-12-10T07:11:05;-1.80;99.90
6210;DHT22;3138;52.550;13.148;2022-12-10T07:13:32;-1.80;99.90
6210;DHT22;3138;52.550;13.148;2022-12-10T07:15:59;-1.80;99.90
6210;DHT22;3138;52.550;13.148;2022-12-10T07:18:26;-1.80;99.90
6210;DHT22;3138;52.550;13.148;2022-12-10T07:20:53;-1.80;99.90
6210;DHT22;3138;52.550;13.148;2022-12-10T07:23:20;-1.80;99.90
6210;DHT22;3138;52.550;13.148;2022-12-10T07:25:47;-1.70;99.90
6210;DHT22;3138;52.550;13.148;2022-12-10T07:28:15;-1.80;99.90
6210;DHT22;3138;52.550;13.148;2022-12-10T07:30:42;-1.80;99.90
6210;DHT22;3138;52.550;13.148;2022-12-10T07:33:09;-1.90;99.90
6210;DHT22;3138;52.550;13.148;2022-12-10T07:35:37;-1.80;99.90
6210;DHT22;3138;52.550;13.148;2022-12-10T07:38:04;-1.80;99.90
6210;DHT22;3138;52.550;13.148;2022-12-10T07:40:31;-1.80;99.90
6210;DHT22;3138;52.550;13.148;2022-12-10T07:42:58;-1.80;99.90
6210;DHT22;3138;52.550;13.148;2022-12-10T07:45:26;-1.70;99.90
6210;DHT22;3138;52.550;13.148;2022-12-10T07:47:53;-1.70;99.90
6210;DHT22;3138;52.550;13.148;2022-12-10T07:50:20;-1.70;99.90
6210;DHT22;3138;52.550;13.148;2022-12-10T07:52:46;-1.70;99.90
6210;DHT22;3138;52.550;13.148;2022-12-10T07:55:13;-1.70;99.90
6210;DHT22;3138;52.550;13.148;2022-12-10T07:57:40;-1.60;99.90
6210;DHT22;3138;52.550;13.148;2022-12-10T08:00:08;-1.60;99.90
6210;DHT22;3138;52.550;13.148;2022-12-10T08:02:37;-1.70;99.90
6210;DHT22;3138;52.550;13.148;2022-12-10T08:05:04;-1.70;99.90
6210;DHT22;3138;52.550;13.148;2022-12-10T08:07:32;-1.70;99.90
6210;DHT22;3138;52.550;13.148;2022-12-10T08:09:59;-1.70;99.90
6210;DHT22;3138;52.550;13.148;2022-12-10T08:12:26;-1.80;99.90
6210;DHT22;3138;52.550;13.148;2022-12-10T08:14:53;-1.70;99.90
6210;DHT22;3138;52.550;13.148;2022-12-10T08:17:19;-1.70;99.90
6210;DHT22;3138;52.550;13.148;2022-12-10T08:19:48;-1.70;99.90
6210;DHT22;3138;52.550;13.148;2022-12-10T08:22:16;-1.60;99.90
6210;DHT22;3138;52.550;13.148;2022-12-10T08:24:42;-1.60;99.90
6210;DHT22;3138;52.550;13.148;2022-12-10T08:27:09;-1.50;99.90
6210;DHT22;3138;52.550;13.148;2022-12-10T08:29:36;-1.50;99.90
6210;DHT22;3138;52.550;13.148;2022-12-10T08:32:03;-1.60;99.90
6210;DHT22;3138;52.550;13.148;2022-12-10T08:34:30;-1.50;99.90
6210;DHT22;3138;52.550;13.148;2022-12-10T08:36:58;-1.50;99.90
6210;DHT22;3138;52.550;13.148;2022-12-10T08:39:25;-1.50;99.90
6210;DHT22;3138;52.550;13.148;2022-12-10T08:41:52;-1.40;99.90
6210;DHT22;3138;52.550;13.148;2022-12-10T08:44:19;-1.40;99.90
6210;DHT22;3138;52.550;13.148;2022-12-10T08:46:46;-1.40;99.90
6210;DHT22;3138;52.550;13.148;2022-12-10T08:49:13;-1.40;99.90
6210;DHT22;3138;52.550;13.148;2022-12-10T08:51:39;-1.30;99.90
6210;DHT22;3138;52.550;13.148;2022-12-10T08:54:08;-1.20;99.90
6210;DHT22;3138;52.550;13.148;2022-12-10T08:56:34;-1.20;99.90
6210;DHT22;3138;52.550;13.148;2022-12-10T08:59:01;-1.20;99.90
6210;DHT22;3138;52.550;13.148;2022-12-10T09:01:28;-1.20;99.90
6210;DHT22;3138;52.550;13.148;2022-12-10T09:03:55;-1.20;99.90
6210;DHT22;3138;52.550;13.148;2022-12-10T09:06:23;-1.20;99.90
6210;DHT22;3138;52.550;13.148;2022-12-10T09:08:50;-1.20;99.90
6210;DHT22;3138;52.550;13.148;2022-12-10T09:11:21;-1.20;99.90
6210;DHT22;3138;52.550;13.148;2022-12-10T09:13:48;-1.30;99.90
6210;DHT22;3138;52.550;13.148;2022-12-10T09:16:17;-1.20;99.90
6210;DHT22;3138;52.550;13.148;2022-12-10T09:18:44;-1.10;99.90
6210;DHT22;3138;52.550;13.148;2022-12-10T09:21:14;-1.10;99.90
6210;DHT22;3138;52.550;13.148;2022-12-10T09:23:42;-1.10;99.90
6210;DHT22;3138;52.550;13.148;2022-12-10T09:26:10;-0.90;99.90
6210;DHT22;3138;52.550;13.148;2022-12-10T09:28:39;-0.90;99.90
6210;DHT22;3138;52.550;13.148;2022-12-10T09:31:06;-0.80;99.90
6210;DHT22;3138;52.550;13.148;2022-12-10T09:33:35;-1.00;99.90
6210;DHT22;3138;52.550;13.148;2022-12-10T09:36:03;-1.00;99.90
6210;DHT22;3138;52.550;13.148;2022-12-10T09:38:31;-1.00;99.90
6210;DHT22;3138;52.550;13.148;2022-12-10T09:41:00;-0.90;99.90
6210;DHT22;3138;52.550;13.148;2022-12-10T09:43:43;-0.90;99.90
6210;DHT22;3138;52.550;13.148;2022-12-10T09:46:18;-0.80;99.90
6210;DHT22;3138;52.550;13.148;2022-12-10T09:48:56;-0.80;99.90
6210;DHT22;3138;52.550;13.148;2022-12-10T09:51:27;-0.80;99.90
6210;DHT22;3138;52.550;13.148;2022-12-10T09:53:57;-0.80;99.90
6210;DHT22;3138;52.550;13.148;2022-12-10T09:56:28;-0.80;99.90
6210;DHT22;3138;52.550;13.148;2022-12-10T09:59:00;-0.70;99.90
6210;DHT22;3138;52.550;13.148;2022-12-10T10:01:33;-0.80;99.90
6210;DHT22;3138;52.550;13.148;2022-12-10T10:04:03;-0.80;99.90
6210;DHT22;3138;52.550;13.148;2022-12-10T10:06:30;-0.70;99.90
6210;DHT22;3138;52.550;13.148;2022-12-10T10:08:59;-0.70;99.90
6210;DHT22;3138;52.550;13.148;2022-12-10T10:11:30;-0.70;99.90
6210;DHT22;3138;52.550;13.148;2022-12-10T10:14:00;-0.70;99.90
6210;DHT22;3138;52.550;13.148;2022-12-10T10:16:32;-0.70;99.90
6210;DHT22;3138;52.550;13.148;2022-12-10T10:19:02;-0.70;99.90
6210;DHT22;3138;52.550;13.148;2022-12-10T10:21:32;-0.80;99.90
6210;DHT22;3138;52.550;13.148;2022-12-10T10:24:00;-0.70;99.90
6210;DHT22;3138;52.550;13.148;2022-12-10T10:26:27;-0.60;99.90
6210;DHT22;3138;52.550;13.148;2022-12-10T10:28:58;-0.60;99.90
6210;DHT22;3138;52.550;13.148;2022-12-10T10:31:28;-0.60;99.90
6210;DHT22;3138;52.550;13.148;2022-12-10T10:33:58;-0.60;99.90
6210;DHT22;3138;52.550;13.148;2022-12-10T10:36:27;-0.70;99.90
6210;DHT22;3138;52.550;13.148;2022-12-10T10:38:54;-0.70;99.90
6210;DHT22;3138;52.550;13.148;2022-12-10T10:41:23;-0.70;99.90
6210;DHT22;3138;52.550;13.148;2022-12-10T10:43:59;-0.70;99.90
6210;DHT22;3138;52.550;13.148;2022-12-10T10:46:28;-0.70;99.90
6210;DHT22;3138;52.550;13.148;2022-12-10T10:49:13;-0.80;99.90
6210;DHT22;3138;52.550;13.148;2022-12-10T10:51:42;-0.80;99.90
6210;DHT22;3138;52.550;13.148;2022-12-10T10:54:09;-0.70;99.90
6210;DHT22;3138;52.550;13.148;2022-12-10T10:56:40;-0.60;99.90
6210;DHT22;3138;52.550;13.148;2022-12-10T10:59:26;-0.60;99.90
6210;DHT22;3138;52.550;13.148;2022-12-10T11:02:01;-0.50;99.90
6210;DHT22;3138;52.550;13.148;2022-12-10T11:04:36;-0.60;99.90
6210;DHT22;3138;52.550;13.148;2022-12-10T11:07:19;-0.60;99.90
6210;DHT22;3138;52.550;13.148;2022-12-10T11:09:48;-0.70;99.90
6210;DHT22;3138;52.550;13.148;2022-12-10T11:12:28;-0.70;99.90
6210;DHT22;3138;52.550;13.148;2022-12-10T11:14:56;-0.70;99.90
6210;DHT22;3138;52.550;13.148;2022-12-10T11:17:25;-0.60;99.90
6210;DHT22;3138;52.550;13.148;2022-12-10T11:19:56;-0.60;99.90
6210;DHT22;3138;52.550;13.148;2022-12-10T11:22:25;-0.40;99.90
6210;DHT22;3138;52.550;13.148;2022-12-10T11:24:52;-0.40;99.90
6210;DHT22;3138;52.550;13.148;2022-12-10T11:27:29;-0.30;99.90
6210;DHT22;3138;52.550;13.148;2022-12-10T11:30:03;-0.60;99.90
6210;DHT22;3138;52.550;13.148;2022-12-10T11:32:50;-0.70;99.90
6210;DHT22;3138;52.550;13.148;2022-12-10T11:35:26;-0.50;99.90
6210;DHT22;3138;52.550;13.148;2022-12-10T11:38:01;-0.50;99.90
6210;DHT22;3138;52.550;13.148;2022-12-10T11:40:38;-0.50;99.90
6210;DHT22;3138;52.550;13.148;2022-12-10T11:43:26;-0.50;99.90
6210;DHT22;3138;52.550;13.148;2022-12-10T11:46:03;-0.50;99.90
6210;DHT22;3138;52.550;13.148;2022-12-10T11:48:49;-0.50;99.90
6210;DHT22;3138;52.550;13.148;2022-12-10T11:51:26;-0.50;99.90
6210;DHT22;3138;52.550;13.148;2022-12-10T11:54:15;-0.40;99.90
6210;DHT22;3138;52.550;13.148;2022-12-10T11:56:51;-0.40;99.90
6210;DHT22;3138;52.550;13.148;2022-12-10T11:59:23;-0.50;99.90
6210;DHT22;3138;52.550;13.148;2022-12-10T12:02:02;-0.50;99.90
6210;DHT22;3138;52.550;13.148;2022-12-10T12:04:49;-0.50;99.90
6210;DHT22;3138;52.550;13.148;2022-12-10T12:07:33;-0.50;99.90
6210;DHT22;3138;52.550;13.148;2022-12-10T12:10:25;-0.50;99.90
6210;DHT22;3138;52.550;13.148;2022-12-10T12:12:57;-0.50;99.90
6210;DHT22;3138;52.550;13.148;2022-12-10T12:15:29;-0.60;99.90
6210;DHT22;3138;52.550;13.148;2022-12-10T12:18:00;-0.50;99.90
6210;DHT22;3138;52.550;13.148;2022-12-10T12:20:33;-0.40;99.90
6210;DHT22;3138;52.550;13.148;2022-12-10T12:23:04;-0.40;99.90
6210;DHT22;3138;52.550;13.148;2022-12-10T12:25:36;-0.50;99.90
6210;DHT22;3138;52.550;13.148;2022-12-10T12:28:11;-0.50;99.90
6210;DHT22;3138;52.550;13.148;2022-12-10T12:30:40;-0.50;99.90
6210;DHT22;3138;52.550;13.148;2022-12-10T12:33:12;-0.60;99.90
6210;DHT22;3138;52.550;13.148;2022-12-10T12:35:44;-0.60;99.90
6210;DHT22;3138;52.550;13.148;2022-12-10T12:38:23;-0.50;99.90
6210;DHT22;3138;52.550;13.148;2022-12-10T12:40:57;-0.30;99.90
6210;DHT22;3138;52.550;13.148;2022-12-10T12:43:37;-0.40;99.90
6210;DHT22;3138;52.550;13.148;2022-12-10T12:46:12;-0.40;99.90
6210;DHT22;3138;52.550;13.148;2022-12-10T12:48:46;-0.50;99.90
6210;DHT22;3138;52.550;13.148;2022-12-10T12:51:20;-0.40;99.90
6210;DHT22;3138;52.550;13.148;2022-12-10T12:53:48;-0.40;99.90
6210;DHT22;3138;52.550;13.148;2022-12-10T12:56:23;-0.50;99.90
6210;DHT22;3138;52.550;13.148;2022-12-10T12:59:02;-0.50;99.90
6210;DHT22;3138;52.550;13.148;2022-12-10T13:01:33;-0.50;99.90
6210;DHT22;3138;52.550;13.148;2022-12-10T13:04:03;-0.50;99.90
6210;DHT22;3138;52.550;13.148;2022-12-10T13:06:33;-0.60;99.90
6210;DHT22;3138;52.550;13.148;2022-12-10T13:09:23;-0.40;99.90
6210;DHT22;3138;52.550;13.148;2022-12-10T13:12:26;-0.40;99.90
6210;DHT22;3138;52.550;13.148;2022-12-10T13:15:01;-0.50;99.90
6210;DHT22;3138;52.550;13.148;2022-12-10T13:17:31;-0.50;99.90
6210;DHT22;3138;52.550;13.148;2022-12-10T13:20:27;-0.60;99.90
6210;DHT22;3138;52.550;13.148;2022-12-10T13:22:57;-0.50;99.90
6210;DHT22;3138;52.550;13.148;2022-12-10T13:25:41;-0.50;99.90
6210;DHT22;3138;52.550;13.148;2022-12-10T13:28:25;-0.50;99.90
6210;DHT22;3138;52.550;13.148;2022-12-10T13:31:19;-0.50;99.90
6210;DHT22;3138;52.550;13.148;2022-12-10T13:33:49;-0.50;99.90
6210;DHT22;3138;52.550;13.148;2022-12-10T13:36:21;-0.50;99.90
6210;DHT22;3138;52.550;13.148;2022-12-10T13:39:02;-0.40;99.90
6210;DHT22;3138;52.550;13.148;2022-12-10T13:41:40;-0.30;99.90
6210;DHT22;3138;52.550;13.148;2022-12-10T13:44:33;-0.40;99.90
6210;DHT22;3138;52.550;13.148;2022-12-10T13:47:05;-0.40;99.90
6210;DHT22;3138;52.550;13.148;2022-12-10T13:49:52;-0.40;99.90
6210;DHT22;3138;52.550;13.148;2022-12-10T13:52:24;-0.40;99.90
6210;DHT22;3138;52.550;13.148;2022-12-10T13:55:12;-0.50;99.90
6210;DHT22;3138;52.550;13.148;2022-12-10T13:57:56;-0.50;99.90
6210;DHT22;3138;52.550;13.148;2022-12-10T14:00:33;-0.50;99.90
6210;DHT22;3138;52.550;13.148;2022-12-10T14:03:47;-0.40;99.90
6210;DHT22;3138;52.550;13.148;2022-12-10T14:06:18;-0.50;99.90
6210;DHT22;3138;52.550;13.148;2022-12-10T14:08:54;-0.50;99.90
6210;DHT22;3138;52.550;13.148;2022-12-10T14:11:28;-0.50;99.90
6210;DHT22;3138;52.550;13.148;2022-12-10T14:13:58;-0.60;99.90
6210;DHT22;3138;52.550;13.148;2022-12-10T14:16:28;-0.60;99.90
6210;DHT22;3138;52.550;13.148;2022-12-10T14:18:59;-0.60;99.90
6210;DHT22;3138;52.550;13.148;2022-12-10T14:21:31;-0.60;99.90
6210;DHT22;3138;52.550;13.148;2022-12-10T14:23:59;-0.60;99.90
6210;DHT22;3138;52.550;13.148;2022-12-10T14:26:30;-0.60;99.90
6210;DHT22;3138;52.550;13.148;2022-12-10T14:28:58;-0.60;99.90
6210;DHT22;3138;52.550;13.148;2022-12-10T14:31:28;-0.70;99.90
6210;DHT22;3138;52.550;13.148;2022-12-10T14:34:00;-0.80;99.90
6210;DHT22;3138;52.550;13.148;2022-12-10T14:36:29;-0.90;99.90
6210;DHT22;3138;52.550;13.148;2022-12-10T14:38:57;-0.90;99.90
6210;DHT22;3138;52.550;13.148;2022-12-10T14:41:24;-1.00;99.90
6210;DHT22;3138;52.550;13.148;2022-12-10T14:43:54;-1.00;99.90
6210;DHT22;3138;52.550;13.148;2022-12-10T14:46:24;-1.00;99.90
6210;DHT22;3138;52.550;13.148;2022-12-10T14:48:52;-1.10;99.90
6210;DHT22;3138;52.550;13.148;2022-12-10T14:51:22;-1.10;99.90
6210;DHT22;3138;52.550;13.148;2022-12-10T14:53:51;-1.00;99.90
6210;DHT22;3138;52.550;13.148;2022-12-10T14:56:24;-1.20;99.90
6210;DHT22;3138;52.550;13.148;2022-12-10T14:58:57;-1.20;99.90
6210;DHT22;3138;52.550;13.148;2022-12-10T15:01:29;-1.20;99.90
6210;DHT22;3138;52.550;13.148;2022-12-10T15:03:59;-1.20;99.90
6210;DHT22;3138;52.550;13.148;2022-12-10T15:06:28;-1.20;99.90
6210;DHT22;3138;52.550;13.148;2022-12-10T15:08:57;-1.30;99.90
6210;DHT22;3138;52.550;13.148;2022-12-10T15:11:25;-1.30;99.90
6210;DHT22;3138;52.550;13.148;2022-12-10T15:13:57;-1.30;99.90
6210;DHT22;3138;52.550;13.148;2022-12-10T15:16:29;-1.40;99.90
6210;DHT22;3138;52.550;13.148;2022-12-10T15:19:07;-1.40;99.90
6210;DHT22;3138;52.550;13.148;2022-12-10T15:21:41;-1.50;99.90
6210;DHT22;3138;52.550;13.148;2022-12-10T15:24:15;-1.50;99.90
6210;DHT22;3138;52.550;13.148;2022-12-10T15:26:43;-1.40;99.90
6210;DHT22;3138;52.550;13.148;2022-12-10T15:29:34;-1.50;99.90
6210;DHT22;3138;52.550;13.148;2022-12-10T15:32:06;-1.60;99.90
6210;DHT22;3138;52.550;13.148;2022-12-10T15:34:40;-1.60;99.90
6210;DHT22;3138;52.550;13.148;2022-12-10T15:37:16;-1.60;99.90
6210;DHT22;3138;52.550;13.148;2022-12-10T15:39:46;-1.60;99.90
6210;DHT22;3138;52.550;13.148;2022-12-10T15:42:36;-1.70;99.90
6210;DHT22;3138;52.550;13.148;2022-12-10T15:45:15;-1.60;99.90
6210;DHT22;3138;52.550;13.148;2022-12-10T15:47:43;-1.60;99.90
6210;DHT22;3138;52.550;13.148;2022-12-10T15:50:10;-1.60;99.90
6210;DHT22;3138;52.550;13.148;2022-12-10T15:52:37;-1.60;99.90
6210;DHT22;3138;52.550;13.148;2022-12-10T15:55:04;-1.60;99.90
6210;DHT22;3138;52.550;13.148;2022-12-10T15:57:33;-1.60;99.90
6210;DHT22;3138;52.550;13.148;2022-12-10T16:00:03;-1.70;99.90
6210;DHT22;3138;52.550;13.148;2022-12-10T16:02:35;-1.70;99.90
6210;DHT22;3138;52.550;13.148;2022-12-10T16:05:10;-1.60;99.90
6210;DHT22;3138;52.550;13.148;2022-12-10T16:07:38;-1.70;99.90
6210;DHT22;3138;52.550;13.148;2022-12-10T16:10:05;-1.60;99.90
6210;DHT22;3138;52.550;13.148;2022-12-10T16:12:34;-1.60;99.90